Time;durP1;ratioP1;P1;durP2;ratioP2;P2;SDS_P1;SDS_P2;PMS_P1;PMS_P2;Temp;Humidity;BMP_temperature;BMP_pressure;BME280_temperature;BME280_humidity;BME280_pressure;Samples;Min_cycle;Max_cycle;Signal;HPM_P1;HPM_P2
2021/05/20 00:00:45;;;;;;;7.88;2.70;;;19.30;65.10;;;;;;4956046;29;20039;-76
2021/05/20 00:03:11;;;;;;;9.00;2.90;;;19.20;65.90;;;;;;4955795;29;20102;-77
2021/05/20 00:05:37;;;;;;;6.25;2.33;;;19.10;66.10;;;;;;4956215;29;20046;-76
2021/05/20 00:08:03;;;;;;;5.90;2.72;;;19.10;66.80;;;;;;4956253;28;20110;-78
2021/05/20 00:10:29;;;;;;;7.00;2.85;;;18.90;66.80;;;;;;4956029;29;20054;-76
2021/05/20 00:12:55;;;;;;;6.30;2.40;;;18.90;66.60;;;;;;4956105;29;20364;-76
2021/05/20 00:15:21;;;;;;;5.43;2.35;;;18.90;66.60;;;;;;4954650;29;20484;-75
2021/05/20 00:17:46;;;;;;;4.75;2.10;;;18.90;66.20;;;;;;4955630;29;20027;-77
2021/05/20 00:20:14;;;;;;;8.35;2.50;;;18.90;66.50;;;;;;4955777;28;20106;-76
2021/05/20 00:22:40;;;;;;;6.75;2.28;;;19.00;67.10;;;;;;4954773;29;20074;-75
2021/05/20 00:25:06;;;;;;;5.40;2.40;;;19.10;66.40;;;;;;4955908;29;20023;-75
2021/05/20 00:27:32;;;;;;;6.50;2.15;;;18.90;67.40;;;;;;4955616;29;20035;-76
2021/05/20 00:29:58;;;;;;;6.03;2.28;;;18.80;68.80;;;;;;4954360;29;20031;-76
2021/05/20 00:32:24;;;;;;;4.53;2.10;;;18.70;67.80;;;;;;4954270;29;20030;-76
2021/05/20 00:34:50;;;;;;;2.90;1.85;;;18.80;67.10;;;;;;4955625;29;20027;-76
2021/05/20 00:37:16;;;;;;;6.90;2.28;;;18.80;67.10;;;;;;4955300;28;20027;-77
2021/05/20 00:39:42;;;;;;;4.65;2.00;;;18.80;67.00;;;;;;4955720;29;20062;-75
2021/05/20 00:42:09;;;;;;;4.85;2.45;;;18.40;67.50;;;;;;4955130;29;20122;-75
2021/05/20 00:45:02;;;;;;;7.22;2.53;;;18.10;69.30;;;;;;4954297;29;20281;-76
2021/05/20 00:47:30;;;;;;;13.25;5.68;;;18.40;70.10;;;;;;4947594;29;20036;-77
2021/05/20 00:49:56;;;;;;;7.50;3.80;;;18.40;71.10;;;;;;4954417;29;20031;-77
2021/05/20 00:52:23;;;;;;;7.65;3.40;;;18.40;72.70;;;;;;4955244;28;20103;-77
2021/05/20 00:54:51;;;;;;;9.90;4.07;;;18.60;73.60;;;;;;4955071;28;20040;-76
2021/05/20 00:57:19;;;;;;;10.55;2.95;;;18.60;74.10;;;;;;4955162;28;20090;-77
2021/05/20 00:59:45;;;;;;;7.32;3.10;;;18.60;75.00;;;;;;4954812;28;20035;-76
2021/05/20 01:02:12;;;;;;;5.97;2.80;;;18.60;75.40;;;;;;4954938;28;20054;-77
2021/05/20 01:04:38;;;;;;;4.68;2.10;;;18.60;76.40;;;;;;4954285;29;20476;-75
2021/05/20 01:07:04;;;;;;;5.53;2.40;;;18.20;78.40;;;;;;4955042;28;20033;-77
2021/05/20 01:09:32;;;;;;;6.95;2.55;;;18.10;80.10;;;;;;4954051;29;20391;-76
2021/05/20 01:11:57;;;;;;;4.78;2.40;;;17.70;82.90;;;;;;4954934;28;20034;-77
2021/05/20 01:14:23;;;;;;;5.22;2.38;;;17.70;85.10;;;;;;4955030;28;20020;-76
2021/05/20 01:16:49;;;;;;;4.90;2.40;;;18.00;85.60;;;;;;4954705;28;20031;-76
2021/05/20 01:19:15;;;;;;;5.25;2.25;;;18.10;86.60;;;;;;4953373;29;20031;-75
2021/05/20 01:21:43;;;;;;;4.72;2.13;;;18.00;88.00;;;;;;4953647;29;20035;-76
2021/05/20 01:24:10;;;;;;;6.60;2.85;;;17.80;90.70;;;;;;4954785;28;20055;-76
2021/05/20 01:26:39;;;;;;;7.60;2.60;;;17.40;93.20;;;;;;4953446;29;20093;-77
2021/05/20 01:29:07;;;;;;;5.90;3.22;;;17.70;94.10;;;;;;4953817;29;20039;-78
2021/05/20 01:31:33;;;;;;;6.13;2.30;;;17.80;94.50;;;;;;4953193;29;20031;-76
2021/05/20 01:33:59;;;;;;;4.13;2.10;;;17.10;97.60;;;;;;4954739;28;20027;-76
2021/05/20 01:36:30;;;;;;;5.80;2.88;;;16.60;99.90;;;;;;4954600;28;20407;-76
2021/05/20 01:39:03;;;;;;;4.35;2.42;;;17.00;99.90;;;;;;4954261;28;20062;-76
2021/05/20 01:41:29;;;;;;;3.80;2.53;;;17.00;99.90;;;;;;4954620;28;20031;-76
2021/05/20 01:43:55;;;;;;;5.97;2.30;;;16.80;99.90;;;;;;4954923;28;20038;-77
2021/05/20 01:46:22;;;;;;;6.25;2.40;;;16.40;99.90;;;;;;4954247;29;20031;-76
2021/05/20 01:49:19;;;;;;;8.13;3.15;;;16.60;99.90;;;;;;4953231;29;20027;-77
2021/05/20 01:51:45;;;;;;;4.18;2.92;;;16.30;99.90;;;;;;4954226;29;20376;-76
2021/05/20 01:54:11;;;;;;;7.47;2.92;;;16.30;99.90;;;;;;4954248;29;20522;-75
2021/05/20 01:56:37;;;;;;;4.78;2.42;;;16.80;99.90;;;;;;4954305;29;20027;-76
2021/05/20 01:59:09;;;;;;;6.38;2.65;;;16.30;99.90;;;;;;4954023;29;20119;-73
2021/05/20 02:01:35;;;;;;;6.30;3.15;;;16.20;99.90;;;;;;4953991;29;20066;-74
2021/05/20 02:04:01;;;;;;;5.10;2.60;;;16.10;99.90;;;;;;4954007;29;20055;-75
2021/05/20 02:06:28;;;;;;;7.50;2.78;;;16.10;99.90;;;;;;4953905;29;20136;-76
2021/05/20 02:08:54;;;;;;;5.35;2.75;;;16.30;99.90;;;;;;4953911;29;20023;-75
2021/05/20 02:11:19;;;;;;;7.55;2.40;;;16.20;99.90;;;;;;4953883;29;20106;-75
2021/05/20 02:13:45;;;;;;;4.07;2.40;;;16.00;99.90;;;;;;4953564;29;20047;-76
2021/05/20 02:16:11;;;;;;;4.95;2.42;;;15.80;99.90;;;;;;4953595;29;20042;-74
2021/05/20 02:18:38;;;;;;;4.35;2.38;;;15.90;99.90;;;;;;4953826;29;20030;-77
2021/05/20 02:21:04;;;;;;;5.28;2.40;;;16.00;99.90;;;;;;4952273;29;20050;-75
2021/05/20 02:23:31;;;;;;;5.57;2.35;;;15.90;99.90;;;;;;4953731;29;20027;-76
2021/05/20 02:25:57;;;;;;;6.57;2.42;;;15.80;99.90;;;;;;4953667;29;20038;-76
2021/05/20 02:28:23;;;;;;;7.28;2.50;;;16.10;99.90;;;;;;4953886;29;20094;-75
2021/05/20 02:30:49;;;;;;;4.93;2.60;;;16.00;99.90;;;;;;4953741;29;20023;-76
2021/05/20 02:33:15;;;;;;;4.10;2.15;;;16.10;99.90;;;;;;4954255;29;20033;-76
2021/05/20 02:35:41;;;;;;;3.85;2.10;;;16.20;99.90;;;;;;4953224;29;20098;-76
2021/05/20 02:38:07;;;;;;;4.05;2.17;;;16.20;99.90;;;;;;4953697;28;20031;-75
2021/05/20 02:40:34;;;;;;;2.80;1.98;;;16.20;99.90;;;;;;4953545;29;20031;-75
2021/05/20 02:43:01;;;;;;;3.03;1.90;;;16.20;99.90;;;;;;4953761;29;20391;-74
2021/05/20 02:45:27;;;;;;;2.67;1.80;;;16.10;99.90;;;;;;4952992;28;20054;-76
2021/05/20 02:47:54;;;;;;;2.47;2.00;;;16.10;99.90;;;;;;4953736;28;20015;-77
2021/05/20 02:50:21;;;;;;;3.85;1.90;;;16.20;99.90;;;;;;4953276;28;20023;-76
2021/05/20 02:52:47;;;;;;;3.65;2.00;;;16.20;99.90;;;;;;4952953;28;20031;-77
2021/05/20 02:55:21;;;;;;;3.30;2.05;;;16.20;99.90;;;;;;4953215;28;20031;-75
2021/05/20 02:57:50;;;;;;;2.25;1.70;;;16.00;99.90;;;;;;4953584;28;20039;-77
2021/05/20 03:00:18;;;;;;;1.90;1.70;;;16.00;99.90;;;;;;4953278;28;20114;-75
2021/05/20 03:02:46;;;;;;;1.95;1.80;;;15.90;99.90;;;;;;4953154;28;20422;-78
2021/05/20 03:05:12;;;;;;;2.00;1.80;;;15.90;99.90;;;;;;4953195;28;20066;-76
2021/05/20 03:07:38;;;;;;;1.95;1.80;;;15.90;99.80;;;;;;4953525;28;20042;-77
2021/05/20 03:10:05;;;;;;;1.88;1.73;;;16.00;99.00;;;;;;4953193;28;20027;-74
2021/05/20 03:12:31;;;;;;;1.95;1.70;;;15.80;98.80;;;;;;4953134;28;20039;-76
2021/05/20 03:14:57;;;;;;;2.60;1.80;;;15.80;98.60;;;;;;4952972;29;20598;-78
2021/05/20 03:17:23;;;;;;;1.90;1.70;;;15.80;98.00;;;;;;4953418;28;20030;-77
2021/05/20 03:19:49;;;;;;;1.80;1.65;;;15.90;98.30;;;;;;4953356;28;20094;-76
2021/05/20 03:22:15;;;;;;;2.05;1.80;;;15.80;98.50;;;;;;4953141;28;20039;-77
2021/05/20 03:24:41;;;;;;;1.98;1.60;;;15.90;98.10;;;;;;4953151;29;20027;-76
2021/05/20 03:27:06;;;;;;;2.17;1.88;;;16.00;97.60;;;;;;4953333;28;20476;-77
2021/05/20 03:29:33;;;;;;;2.28;1.80;;;16.00;97.70;;;;;;4953058;28;20057;-77
2021/05/20 03:31:58;;;;;;;1.90;1.70;;;16.30;97.10;;;;;;4953114;28;20027;-77
2021/05/20 03:34:25;;;;;;;2.92;2.03;;;16.20;96.20;;;;;;4952770;29;20430;-75
2021/05/20 03:36:51;;;;;;;3.13;1.90;;;16.00;96.80;;;;;;4952680;28;20159;-75
2021/05/20 03:39:16;;;;;;;3.08;1.80;;;16.00;96.60;;;;;;4952847;29;20500;-75
2021/05/20 03:41:42;;;;;;;2.33;1.90;;;15.90;96.80;;;;;;4953385;28;20586;-76
2021/05/20 03:44:08;;;;;;;2.50;2.10;;;15.80;96.80;;;;;;4953290;29;20121;-75
2021/05/20 03:46:34;;;;;;;2.17;1.85;;;15.80;96.50;;;;;;4952868;29;20032;-73
2021/05/20 03:48:59;;;;;;;2.53;1.63;;;15.70;96.60;;;;;;4953134;29;20031;-75
2021/05/20 03:51:25;;;;;;;1.98;1.80;;;15.80;96.00;;;;;;4952682;29;20042;-76
2021/05/20 03:53:51;;;;;;;2.22;1.90;;;15.70;96.00;;;;;;4952643;29;20065;-75
2021/05/20 03:56:17;;;;;;;1.70;1.60;;;15.80;96.10;;;;;;4953551;28;20462;-75
2021/05/20 03:58:43;;;;;;;2.00;1.80;;;15.70;95.90;;;;;;4956989;29;20023;-75
2021/05/20 04:01:08;;;;;;;3.85;1.90;;;15.80;96.20;;;;;;4956002;29;20043;-75
2021/05/20 04:03:34;;;;;;;2.22;1.75;;;15.80;96.00;;;;;;4956485;29;20459;-75
2021/05/20 04:06:04;;;;;;;1.70;1.60;;;15.70;96.50;;;;;;4956550;28;20034;-76
2021/05/20 04:08:33;;;;;;;2.63;2.25;;;15.70;96.90;;;;;;4956364;29;20399;-77
2021/05/20 04:10:59;;;;;;;1.60;1.50;;;16.10;96.40;;;;;;4956144;29;20035;-75
2021/05/20 04:13:36;;;;;;;1.75;1.65;;;16.10;96.50;;;;;;4954830;29;20030;-76
2021/05/20 04:16:03;;;;;;;2.40;1.80;;;16.40;96.30;;;;;;4955799;28;20070;-75
2021/05/20 04:18:30;;;;;;;1.98;1.80;;;16.60;96.00;;;;;;4956351;29;20403;-75
2021/05/20 04:20:57;;;;;;;2.95;1.80;;;16.50;96.30;;;;;;4955941;29;20428;-75
2021/05/20 04:23:23;;;;;;;4.00;2.22;;;16.70;96.70;;;;;;4954939;29;20434;-74
2021/05/20 04:25:51;;;;;;;3.15;1.88;;;16.70;97.60;;;;;;4955702;28;20427;-75
2021/05/20 04:28:17;;;;;;;3.72;2.17;;;16.70;99.00;;;;;;4956239;29;20077;-77
2021/05/20 04:30:43;;;;;;;3.55;2.25;;;16.70;99.90;;;;;;4955772;29;20536;-76
2021/05/20 04:33:10;;;;;;;5.00;2.25;;;16.80;99.90;;;;;;4954428;29;20139;-75
2021/05/20 04:35:36;;;;;;;5.60;2.85;;;16.90;99.90;;;;;;4955635;29;20109;-75
2021/05/20 04:38:04;;;;;;;2.65;1.90;;;16.90;99.90;;;;;;4955569;28;20376;-76
2021/05/20 04:40:30;;;;;;;4.63;2.28;;;17.00;99.90;;;;;;4955711;29;20114;-76
2021/05/20 04:42:56;;;;;;;6.80;2.30;;;17.10;99.90;;;;;;4955987;29;20015;-77
2021/05/20 04:45:22;;;;;;;5.43;2.10;;;16.90;99.90;;;;;;4954089;29;20031;-77
2021/05/20 04:47:48;;;;;;;3.75;2.17;;;16.80;99.90;;;;;;4955655;29;20135;-75
2021/05/20 04:50:15;;;;;;;2.58;1.80;;;16.70;99.90;;;;;;4955408;28;20091;-76
2021/05/20 04:52:42;;;;;;;3.55;2.17;;;16.90;99.90;;;;;;4955013;28;20155;-76
2021/05/20 04:55:09;;;;;;;3.03;2.30;;;17.00;99.90;;;;;;4955483;28;20074;-77
2021/05/20 04:57:35;;;;;;;17.00;10.60;;;17.10;99.90;;;;;;4955432;28;20023;-77
2021/05/20 05:00:03;;;;;;;67.20;41.75;;;17.30;99.90;;;;;;4955062;28;20047;-77
2021/05/20 05:02:28;;;;;;;85.88;52.47;;;17.60;99.90;;;;;;4955436;28;20062;-78
2021/05/20 05:04:54;;;;;;;10.45;6.50;;;17.60;99.90;;;;;;4955103;28;20035;-77
2021/05/20 05:07:20;;;;;;;7.70;4.53;;;17.30;99.90;;;;;;4953419;28;20034;-77
2021/05/20 05:09:46;;;;;;;8.00;4.60;;;17.50;99.90;;;;;;4955332;29;20031;-77
2021/05/20 05:12:11;;;;;;;7.50;4.03;;;17.40;99.90;;;;;;4953369;29;20023;-78
2021/05/20 05:14:37;;;;;;;4.13;2.10;;;17.50;99.90;;;;;;4953237;29;20058;-77
2021/05/20 05:17:03;;;;;;;6.07;2.10;;;17.40;99.90;;;;;;4954700;29;20599;-77
2021/05/20 05:19:28;;;;;;;3.22;1.83;;;17.30;99.90;;;;;;4953631;29;20118;-79
2021/05/20 05:21:56;;;;;;;4.05;2.20;;;17.00;99.90;;;;;;4953691;29;20498;-76
2021/05/20 05:24:21;;;;;;;3.13;2.00;;;17.10;99.90;;;;;;4954205;28;20475;-76
2021/05/20 05:26:47;;;;;;;5.30;2.67;;;16.60;99.90;;;;;;4953786;29;20027;-76
2021/05/20 05:29:13;;;;;;;55.00;35.75;;;16.50;99.90;;;;;;4954489;29;20058;-76
2021/05/20 05:31:39;;;;;;;63.65;41.17;;;17.10;99.90;;;;;;4954256;28;20031;-78
2021/05/20 05:34:05;;;;;;;59.35;40.30;;;17.40;99.90;;;;;;4953744;28;20094;-78
2021/05/20 05:36:30;;;;;;;16.88;8.77;;;17.50;99.90;;;;;;4953718;28;20539;-74
2021/05/20 05:38:56;;;;;;;25.35;16.13;;;17.70;99.90;;;;;;4954236;28;20420;-76
2021/05/20 05:41:22;;;;;;;29.05;16.38;;;17.80;99.90;;;;;;4954295;28;20031;-72
2021/05/20 05:43:48;;;;;;;48.05;30.48;;;17.80;99.90;;;;;;4954010;29;20027;-73
2021/05/20 05:46:13;;;;;;;10.77;6.85;;;17.70;99.90;;;;;;4953522;29;20487;-76
2021/05/20 05:48:40;;;;;;;8.45;3.25;;;17.60;99.90;;;;;;4938116;29;20038;-75
2021/05/20 05:51:10;;;;;;;5.85;3.03;;;17.60;99.90;;;;;;4949348;29;20194;-75
2021/05/20 05:53:36;;;;;;;10.82;4.80;;;17.60;99.90;;;;;;4950724;29;20515;-79
2021/05/20 05:56:02;;;;;;;18.48;10.60;;;17.60;99.90;;;;;;4951051;28;20479;-79
2021/05/20 05:58:28;;;;;;;28.17;16.80;;;17.80;99.90;;;;;;4943972;29;20035;-75
2021/05/20 06:00:55;;;;;;;10.15;4.88;;;17.80;99.90;;;;;;4947091;29;20491;-77
2021/05/20 06:03:21;;;;;;;8.35;3.47;;;17.70;99.90;;;;;;4953557;28;20058;-75
2021/05/20 06:05:48;;;;;;;8.40;3.13;;;17.40;99.90;;;;;;4952225;28;20031;-76
2021/05/20 06:08:14;;;;;;;6.40;3.10;;;17.70;99.90;;;;;;4952401;29;20031;-77
2021/05/20 06:10:40;;;;;;;5.95;2.67;;;17.90;99.90;;;;;;4948291;28;20039;-76
2021/05/20 06:13:06;;;;;;;7.47;2.97;;;18.00;99.90;;;;;;4948765;29;20030;-75
2021/05/20 06:15:32;;;;;;;8.27;2.88;;;17.90;99.90;;;;;;4953335;28;20388;-76
2021/05/20 06:17:58;;;;;;;6.35;3.00;;;17.60;99.90;;;;;;4953267;29;20030;-78
2021/05/20 06:20:23;;;;;;;11.18;4.18;;;17.50;99.90;;;;;;4952563;28;20075;-76
2021/05/20 06:22:49;;;;;;;3.67;1.83;;;17.50;99.90;;;;;;4953166;29;20023;-77
2021/05/20 06:25:15;;;;;;;3.40;2.17;;;17.30;99.90;;;;;;4953337;28;20023;-77
2021/05/20 06:27:41;;;;;;;4.18;2.25;;;17.20;99.90;;;;;;4953410;29;20035;-76
2021/05/20 06:30:07;;;;;;;6.82;2.97;;;17.10;99.90;;;;;;4952317;28;20035;-75
2021/05/20 06:32:33;;;;;;;4.72;2.08;;;17.10;99.90;;;;;;4952782;28;20076;-77
2021/05/20 06:34:59;;;;;;;5.30;1.90;;;17.20;99.90;;;;;;4953443;29;20034;-75
2021/05/20 06:37:24;;;;;;;6.97;2.35;;;17.20;99.90;;;;;;4953425;28;20380;-80
2021/05/20 06:39:50;;;;;;;8.60;2.67;;;17.20;99.90;;;;;;4952057;29;20027;-78
2021/05/20 06:42:17;;;;;;;8.75;2.33;;;17.30;99.90;;;;;;4953144;29;20032;-76
2021/05/20 06:44:43;;;;;;;5.80;2.10;;;17.50;99.90;;;;;;4953008;28;20110;-76
2021/05/20 06:47:09;;;;;;;6.95;2.20;;;17.60;99.90;;;;;;4952680;29;20171;-79
2021/05/20 06:49:35;;;;;;;35.85;22.63;;;17.70;99.90;;;;;;4952018;29;20038;-76
2021/05/20 06:52:01;;;;;;;38.22;21.70;;;18.20;99.90;;;;;;4945580;29;20032;-81
2021/05/20 06:54:26;;;;;;;13.13;6.55;;;18.50;99.90;;;;;;4949774;28;20051;-81
2021/05/20 06:56:57;;;;;;;9.57;4.75;;;18.50;99.90;;;;;;4951616;28;20027;-79
2021/05/20 07:02:08;;;;;;;7.97;4.30;;;18.80;99.00;;;;;;4953146;29;20482;-78
2021/05/20 07:04:34;;;;;;;9.98;3.65;;;18.80;98.50;;;;;;4953340;28;20563;-80
2021/05/20 07:07:03;;;;;;;6.53;3.20;;;18.70;97.80;;;;;;4953150;28;20032;-78
2021/05/20 07:09:32;;;;;;;5.95;3.17;;;18.80;97.50;;;;;;4952761;28;20095;-77
2021/05/20 07:11:58;;;;;;;10.15;3.78;;;18.40;96.10;;;;;;4951263;29;20031;-76
2021/05/20 07:14:25;;;;;;;5.28;2.70;;;18.30;96.40;;;;;;4952928;29;20087;-75
2021/05/20 07:16:52;;;;;;;4.65;2.30;;;18.50;97.10;;;;;;4951280;29;20509;-77
2021/05/20 07:19:19;;;;;;;7.90;2.75;;;18.60;96.80;;;;;;4953127;28;20024;-76
2021/05/20 07:21:45;;;;;;;7.70;2.75;;;19.00;95.80;;;;;;4952871;28;20034;-76
2021/05/20 07:24:11;;;;;;;11.57;3.17;;;19.40;95.70;;;;;;4952963;28;20032;-77
2021/05/20 07:26:37;;;;;;;6.60;2.40;;;19.40;94.50;;;;;;4951728;29;20554;-77
2021/05/20 07:29:04;;;;;;;6.07;2.53;;;19.50;93.80;;;;;;4953323;28;20031;-78
2021/05/20 07:31:30;;;;;;;7.53;2.50;;;19.30;95.10;;;;;;4955629;28;20086;-76
2021/05/20 07:33:58;;;;;;;6.80;2.13;;;19.30;95.10;;;;;;4956732;28;20023;-78
2021/05/20 07:36:24;;;;;;;8.73;2.05;;;19.30;94.70;;;;;;4955365;28;20023;-77
2021/05/20 07:38:50;;;;;;;5.18;2.20;;;19.30;93.80;;;;;;4956140;28;20077;-77
2021/05/20 07:41:16;;;;;;;6.93;2.95;;;19.20;93.90;;;;;;4955494;29;20039;-78
2021/05/20 07:43:42;;;;;;;6.80;2.58;;;19.30;94.10;;;;;;4956503;28;20027;-78
2021/05/20 07:46:09;;;;;;;5.47;2.00;;;19.40;93.40;;;;;;4946918;28;20070;-76
2021/05/20 07:48:35;;;;;;;9.35;2.50;;;19.20;93.80;;;;;;4937243;29;20058;-76
2021/05/20 07:51:02;;;;;;;6.45;2.67;;;19.30;93.10;;;;;;4937530;29;20083;-78
2021/05/20 07:53:28;;;;;;;6.97;3.15;;;19.40;92.70;;;;;;4937797;29;20094;-78
2021/05/20 07:55:54;;;;;;;6.95;3.38;;;19.40;92.10;;;;;;4954823;29;20447;-76
2021/05/20 07:58:20;;;;;;;7.72;3.08;;;19.50;91.90;;;;;;4956563;29;20035;-78
2021/05/20 08:00:46;;;;;;;9.02;2.63;;;19.60;92.60;;;;;;4954346;29;20045;-78
2021/05/20 08:06:01;;;;;;;;;;;19.60;92.00;;;;;;4956557;29;20051;-75
2021/05/20 08:11:12;;;;;;;5.82;2.03;;;19.80;92.50;;;;;;4955965;29;20063;-78
2021/05/20 08:13:38;;;;;;;4.57;1.92;;;19.70;91.80;;;;;;4955329;29;20035;-79
2021/05/20 08:16:04;;;;;;;5.10;2.20;;;19.70;91.60;;;;;;4955845;28;20035;-75
2021/05/20 08:18:31;;;;;;;5.13;1.80;;;19.80;92.10;;;;;;4955475;28;20031;-78
2021/05/20 08:20:58;;;;;;;3.40;1.77;;;20.00;91.50;;;;;;4955347;29;20042;-78
2021/05/20 08:23:25;;;;;;;5.25;1.70;;;20.20;90.20;;;;;;4955790;29;20019;-76
2021/05/20 08:25:51;;;;;;;4.85;1.83;;;20.20;89.30;;;;;;4945978;29;20024;-77
2021/05/20 08:28:17;;;;;;;5.25;1.90;;;20.40;90.00;;;;;;4943687;29;20107;-77
2021/05/20 08:30:43;;;;;;;2.88;1.80;;;20.60;89.60;;;;;;4936483;29;20035;-77
2021/05/20 08:33:09;;;;;;;4.15;1.80;;;20.50;86.60;;;;;;4936186;29;20026;-80
2021/05/20 08:35:36;;;;;;;5.70;1.85;;;20.70;85.70;;;;;;4935283;29;20027;-78
2021/05/20 08:38:01;;;;;;;6.10;1.52;;;20.70;85.30;;;;;;4935542;29;20024;-79
2021/05/20 08:40:27;;;;;;;6.50;1.75;;;20.50;83.30;;;;;;4937697;29;20094;-79
2021/05/20 08:42:53;;;;;;;4.07;1.60;;;20.40;83.30;;;;;;4954568;28;20031;-79
2021/05/20 08:45:22;;;;;;;7.53;1.70;;;20.40;82.80;;;;;;4950711;29;20039;-78
2021/05/20 08:47:50;;;;;;;4.20;1.55;;;20.70;83.70;;;;;;4935910;29;20023;-77
2021/05/20 08:50:17;;;;;;;4.18;1.52;;;20.80;84.10;;;;;;4935682;29;20404;-78
2021/05/20 08:52:44;;;;;;;6.90;1.75;;;20.90;84.70;;;;;;4935310;29;20360;-77
2021/05/20 08:55:15;;;;;;;3.92;1.65;;;20.80;82.80;;;;;;4935407;29;20495;-76
2021/05/20 08:57:41;;;;;;;6.40;3.15;;;20.80;83.60;;;;;;4935175;29;20034;-75
2021/05/20 09:00:11;;;;;;;5.00;1.80;;;20.90;83.70;;;;;;4935279;29;20050;-76
2021/05/20 09:02:37;;;;;;;6.90;2.20;;;21.20;83.30;;;;;;4935916;29;20423;-77
2021/05/20 09:05:06;;;;;;;6.75;2.30;;;21.90;80.90;;;;;;4935763;29;20054;-77
2021/05/20 09:07:36;;;;;;;9.15;2.10;;;21.70;79.70;;;;;;4935670;29;20090;-79
2021/05/20 09:10:09;;;;;;;6.25;1.85;;;22.10;78.40;;;;;;4942510;29;20458;-78
2021/05/20 09:12:34;;;;;;;4.95;1.63;;;22.10;77.80;;;;;;4935151;29;20419;-78
2021/05/20 09:15:00;;;;;;;5.93;1.63;;;21.90;75.40;;;;;;4944461;29;20464;-76
2021/05/20 09:17:26;;;;;;;8.70;2.17;;;21.80;73.90;;;;;;4954238;28;20049;-74
2021/05/20 09:19:54;;;;;;;4.65;1.45;;;21.90;73.60;;;;;;4953064;29;20035;-76
2021/05/20 09:22:21;;;;;;;3.60;1.20;;;22.10;70.70;;;;;;4954720;29;20071;-77
2021/05/20 09:24:48;;;;;;;13.23;2.42;;;21.90;70.50;;;;;;4954264;29;20038;-76
2021/05/20 09:27:27;;;;;;;4.53;2.10;;;22.10;68.40;;;;;;4953118;28;20353;-79
2021/05/20 09:30:12;;;;;;;3.97;1.67;;;22.20;68.20;;;;;;4954456;29;20510;-79
2021/05/20 09:32:47;;;;;;;9.45;3.60;;;22.10;67.90;;;;;;4954349;29;20035;-78
2021/05/20 09:35:14;;;;;;;4.25;1.50;;;22.10;68.60;;;;;;4953989;28;20034;-75
2021/05/20 09:37:49;;;;;;;4.40;1.50;;;21.80;67.90;;;;;;4953208;29;20027;-79
2021/05/20 09:40:16;;;;;;;4.22;1.80;;;21.50;69.00;;;;;;4954149;29;20118;-77
2021/05/20 09:42:45;;;;;;;7.68;1.80;;;21.40;69.20;;;;;;4953121;29;20031;-76
2021/05/20 09:45:12;;;;;;;10.45;3.53;;;21.40;67.80;;;;;;4953320;28;20101;-77
2021/05/20 09:47:38;;;;;;;5.63;1.58;;;21.70;66.00;;;;;;4953246;28;20019;-75
2021/05/20 09:50:11;;;;;;;5.30;1.50;;;21.70;64.60;;;;;;4952223;28;20046;-73
2021/05/20 09:52:37;;;;;;;5.47;1.50;;;22.10;64.90;;;;;;4950677;29;20073;-74
2021/05/20 09:55:16;;;;;;;6.88;1.80;;;21.80;70.20;;;;;;4952959;28;20035;-74
2021/05/20 09:57:42;;;;;;;7.27;1.47;;;21.70;73.30;;;;;;4950540;29;20027;-77
2021/05/20 10:00:16;;;;;;;3.72;1.55;;;21.60;72.20;;;;;;4952508;28;20043;-76
2021/05/20 10:02:44;;;;;;;2.92;1.20;;;21.40;73.10;;;;;;4950835;29;20027;-75
2021/05/20 10:05:21;;;;;;;7.07;1.35;;;21.10;71.50;;;;;;4952541;28;20415;-75
2021/05/20 10:07:47;;;;;;;4.03;1.25;;;21.40;69.60;;;;;;4950459;29;20375;-74
2021/05/20 10:10:15;;;;;;;3.78;1.30;;;21.40;69.30;;;;;;4950289;28;20494;-74
2021/05/20 10:12:45;;;;;;;4.55;1.60;;;21.30;69.50;;;;;;4951965;28;20109;-77
2021/05/20 10:15:14;;;;;;;6.18;1.77;;;21.30;69.90;;;;;;4952501;28;20491;-76
2021/05/20 10:17:41;;;;;;;4.90;1.90;;;21.30;69.70;;;;;;4952578;28;20460;-76
2021/05/20 10:20:08;;;;;;;4.28;1.52;;;21.00;75.10;;;;;;4952401;28;20383;-76
2021/05/20 10:22:34;;;;;;;5.07;1.63;;;20.80;73.30;;;;;;4947070;28;20106;-74
2021/05/20 10:25:00;;;;;;;6.03;1.65;;;20.90;72.70;;;;;;4950616;29;20153;-76
2021/05/20 10:27:26;;;;;;;5.47;1.70;;;20.70;78.20;;;;;;4948539;28;20023;-75
2021/05/20 10:29:52;;;;;;;5.80;2.17;;;20.70;85.90;;;;;;4951721;28;20032;-76
2021/05/20 10:32:19;;;;;;;4.57;1.73;;;20.80;90.60;;;;;;4949768;29;20023;-78
2021/05/20 10:35:06;;;;;;;4.60;2.20;;;20.20;88.50;;;;;;4951790;28;20110;-76
2021/05/20 10:37:40;;;;;;;2.92;1.70;;;21.20;84.90;;;;;;4951140;29;20748;-77
2021/05/20 10:40:25;;;;;;;3.65;1.67;;;21.90;84.60;;;;;;4949571;29;20023;-74
2021/05/20 10:43:09;;;;;;;7.38;2.03;;;21.90;78.30;;;;;;4951355;29;20031;-76
2021/05/20 10:45:38;;;;;;;2.08;1.10;;;21.80;75.10;;;;;;4946668;29;20424;-78
2021/05/20 10:48:04;;;;;;;13.73;2.17;;;22.00;78.00;;;;;;4942979;29;20027;-79
2021/05/20 10:51:02;;;;;;;3.30;1.20;;;22.40;75.70;;;;;;4951239;28;20030;-80
2021/05/20 10:53:57;;;;;;;3.65;1.10;;;22.10;72.00;;;;;;4949228;29;20399;-79
2021/05/20 10:56:23;;;;;;;2.05;0.98;;;22.00;68.20;;;;;;4949994;29;20031;-81
2021/05/20 10:58:50;;;;;;;5.32;1.10;;;21.70;70.60;;;;;;4952735;28;20090;-77
2021/05/20 11:01:25;;;;;;;5.72;1.00;;;21.90;69.90;;;;;;4952851;28;20039;-82
2021/05/20 11:03:58;;;;;;;7.65;1.83;;;22.50;68.20;;;;;;4946397;28;20027;-84
2021/05/20 11:06:46;;;;;;;4.63;1.63;;;22.90;67.80;;;;;;4939164;29;20027;-83
2021/05/20 11:09:15;;;;;;;3.90;1.20;;;23.30;67.00;;;;;;4944524;29;20023;-88
2021/05/20 11:11:41;;;;;;;3.23;1.30;;;23.50;66.30;;;;;;4959139;28;20102;-78
2021/05/20 11:14:13;;;;;;;7.45;1.83;;;23.30;64.40;;;;;;4959521;28;20368;-82
2021/05/20 11:16:43;;;;;;;4.13;1.58;;;23.00;66.70;;;;;;4959487;28;20114;-83
2021/05/20 11:19:19;;;;;;;4.40;1.60;;;23.00;66.40;;;;;;4959946;28;20031;-76
2021/05/20 11:22:01;;;;;;;4.75;1.60;;;23.30;66.90;;;;;;4959566;28;20078;-79
2021/05/20 11:24:35;;;;;;;5.28;1.42;;;23.90;65.10;;;;;;4959561;28;20033;-80
2021/05/20 11:27:27;;;;;;;3.25;1.40;;;24.40;63.00;;;;;;4959199;28;20049;-82
2021/05/20 11:29:54;;;;;;;8.15;2.50;;;24.10;61.60;;;;;;4958890;28;20039;-83
2021/05/20 11:32:29;;;;;;;4.43;2.20;;;23.40;60.80;;;;;;4959580;28;20506;-85
2021/05/20 11:35:16;;;;;;;3.00;1.10;;;23.20;60.40;;;;;;4959841;28;20118;-90
2021/05/20 11:37:42;;;;;;;2.47;1.00;;;23.00;61.60;;;;;;4959388;28;20046;-86
2021/05/20 11:40:32;;;;;;;5.90;1.45;;;22.50;66.20;;;;;;4958103;28;20039;-82
2021/05/20 11:42:59;;;;;;;6.43;1.50;;;21.90;70.70;;;;;;4958416;28;20034;-82
2021/05/20 11:45:27;;;;;;;5.72;1.58;;;21.30;72.40;;;;;;4959749;28;20130;-85
2021/05/20 11:47:54;;;;;;;3.78;1.98;;;21.30;74.70;;;;;;4959456;28;20062;-84
2021/05/20 11:50:23;;;;;;;5.45;1.55;;;21.20;74.30;;;;;;4959490;28;20023;-84
2021/05/20 11:52:52;;;;;;;4.55;1.42;;;20.70;75.70;;;;;;4959220;28;20046;-83
2021/05/20 11:55:19;;;;;;;3.33;1.30;;;20.70;76.60;;;;;;4958094;28;20102;-84
2021/05/20 11:57:46;;;;;;;4.82;2.05;;;21.10;78.40;;;;;;4959034;28;20023;-83
2021/05/20 12:00:13;;;;;;;3.03;1.30;;;21.90;76.40;;;;;;4959215;28;20035;-86
2021/05/20 12:02:40;;;;;;;2.67;1.23;;;21.20;77.10;;;;;;4957872;29;20028;-84
2021/05/20 12:05:12;;;;;;;3.40;1.75;;;20.70;76.40;;;;;;4958202;29;20498;-77
2021/05/20 12:07:41;;;;;;;2.85;1.20;;;20.60;79.90;;;;;;4959169;29;20042;-86
2021/05/20 12:10:17;;;;;;;6.10;2.03;;;20.20;82.80;;;;;;4959350;28;20106;-85
2021/05/20 12:12:55;;;;;;;4.65;1.60;;;20.10;87.40;;;;;;4959076;29;20027;-81
2021/05/20 12:15:22;;;;;;;4.03;2.17;;;20.00;89.70;;;;;;4959217;28;20027;-82
2021/05/20 12:17:51;;;;;;;4.95;1.98;;;20.00;86.70;;;;;;4954521;28;20110;-84
2021/05/20 12:20:21;;;;;;;4.20;1.95;;;20.40;88.70;;;;;;4944261;29;20039;-85
2021/05/20 12:22:48;;;;;;;2.90;1.50;;;20.00;89.70;;;;;;4952840;29;20024;-82
2021/05/20 12:25:16;;;;;;;2.95;1.58;;;20.00;91.20;;;;;;4950674;29;20037;-84
2021/05/20 12:27:50;;;;;;;3.85;1.40;;;20.00;91.60;;;;;;4955546;28;20038;-85
2021/05/20 12:30:21;;;;;;;6.57;1.50;;;20.00;91.50;;;;;;4953921;29;20509;-85
2021/05/20 12:32:54;;;;;;;2.80;1.40;;;20.00;91.00;;;;;;4954248;28;20407;-83
2021/05/20 12:35:23;;;;;;;3.97;1.75;;;19.70;91.30;;;;;;4954737;28;20043;-85
2021/05/20 12:37:58;;;;;;;4.32;1.88;;;19.70;91.20;;;;;;4955111;29;20119;-76
2021/05/20 12:40:50;;;;;;;6.95;1.90;;;19.50;92.00;;;;;;4953759;29;20110;-84
2021/05/20 12:43:21;;;;;;;5.18;1.70;;;19.40;92.10;;;;;;4955504;29;20460;-82
2021/05/20 12:45:58;;;;;;;5.97;1.55;;;18.60;93.60;;;;;;4954005;29;20122;-86
2021/05/20 12:48:30;;;;;;;5.22;1.63;;;18.10;93.50;;;;;;4950581;29;20031;-80
2021/05/20 12:50:58;;;;;;;7.00;2.22;;;17.70;93.90;;;;;;4951409;29;20034;-83
2021/05/20 12:53:41;;;;;;;4.75;2.13;;;17.60;96.70;;;;;;4953723;28;20046;-85
2021/05/20 12:56:34;;;;;;;5.10;1.77;;;17.20;97.70;;;;;;4950600;29;20031;-86
2021/05/20 12:59:11;;;;;;;5.03;1.88;;;15.90;99.90;;;;;;4951104;29;20031;-78